Kansas City Downtown, MO

1:17 AM CDT on October 01, 2014 (GMT -0500)
Kansas City Downtown | Change Station
CLOSE
Current Station
Airport
Location: Kansas City,
Elevation: 758 ft
Nearby Weather Stations

Elev 758 ft 39.12 °N, 94.60 °W | Updated 23 minutes ago

Scattered Clouds
Scattered Clouds
73 °F
Feels Like 73 °F
N
12
Wind Variable Wind from SSE
Gusts 17 mph

Today
High -- | Low -- °F
--% Chance of Precip.
Yesterday
High -- | Low -- °F
Precip. -- in
7:14 AM 7:00 PM
Waxing Crescent, 44% visible
Pressure 29.75 in
Visibility 10.0 miles
Clouds Few 6000 ft
Scattered Clouds 9000 ft
Scattered Clouds 11000 ft
Dew Point 61 °F
Humidity 66%
Rainfall 0.03 in
Snow Depth Not available.
UV 0 out of 12
Pollen 3.90 out of 12
Ozone Good
PM2.5 Moderate
Flu Activity Not available.
METAR KMKC 010554Z 15010G15KT 10SM FEW060 SCT090 SCT110 23/16 A2977 RMK AO2 RAB04E37 SLP072 P0003 60003 T02280161 10272 20217 403000172 58004

More Conditions Fewer Conditions

Pressure 29.75 in
Visibility 10.0 miles
Clouds Few 6000 ft
Scattered Clouds 9000 ft
Scattered Clouds 11000 ft
Dew Point 61 °F
Humidity 66%
Rainfall 0.03 in
Snow Depth Not available.
UV 0 out of 12
Pollen 3.90 out of 12
Ozone Good
PM2.5 Moderate
Flu Activity Not available.
METAR KMKC 010554Z 15010G15KT 10SM FEW060 SCT090 SCT110 23/16 A2977 RMK AO2 RAB04E37 SLP072 P0003 60003 T02280161 10272 20217 403000172 58004

More Conditions Fewer Conditions

10-Day Weather Forecast

Almanac

Astronomy

Oct. 01, 2014 Rise Set
Actual Time 7:14 AM CDT 7:00 PM CDT
Civil Twilight 6:47 AM CDT 7:27 PM CDT
Nautical Twilight 6:16 AM CDT 7:58 PM CDT
Astronomical Twilight 5:45 AM CDT 8:29 PM CDT
Moon 2:14 PM CDT No Moon Set
Length of Visible Light 12h 39m
Length of Day
11h 46m
Tomorrow will be 2m 32s shorter.
Waxing Crescent, 44% of the Moon is Illuminated
Today
Waxing Crescent
Oct 1
First Quarter
Oct 8
Full
Oct 15
Last Quarter
Oct 23
New

Today's Extremes

State Highs State Lows

Community

WunderPhotos

Upload Photos

1,757,877 photos uploaded!

Nearby

Air Quality

  Air Quality AQ Index Pollutant
Yesterday Moderate
PM2.5
Yesterday Moderate
OZONE
Current Moderate
PM2.5
Current Good
OZONE
Tuesday Good
OZONE
Wednesday Good
OZONE

Snow Depth

Station Depth Elevation
No new snow has been reported.

Earthquake Activity

City Distance Mag. Time & Date
Parsons, Kansas 127 miles 3.0 7:33 PM CDT
2014-09-30
Minimum magnitude displayed is 2.5.

Coastal Water Temperatures

Place Temperature
No Stations Reporting

Nearby Weather Stations